sensor_id;sensor_type;location;lat;lon;timestamp;P1;durP1;ratioP1;P2;durP2;ratioP2
62052;SDS011;48300;52.902;6.534;2023-12-22T00:01:15;17.05;;;2.35;;
62052;SDS011;48300;52.902;6.534;2023-12-22T00:03:42;22.77;;;2.83;;
62052;SDS011;48300;52.902;6.534;2023-12-22T00:06:10;17.83;;;2.65;;
62052;SDS011;48300;52.902;6.534;2023-12-22T00:08:37;20.60;;;2.92;;
62052;SDS011;48300;52.902;6.534;2023-12-22T00:11:03;23.75;;;3.92;;
62052;SDS011;48300;52.902;6.534;2023-12-22T00:13:29;23.55;;;3.03;;
62052;SDS011;48300;52.902;6.534;2023-12-22T00:15:55;21.77;;;2.90;;
62052;SDS011;48300;52.902;6.534;2023-12-22T00:18:21;18.25;;;2.95;;
62052;SDS011;48300;52.902;6.534;2023-12-22T00:20:47;28.67;;;4.00;;
62052;SDS011;48300;52.902;6.534;2023-12-22T00:23:13;14.93;;;2.67;;
62052;SDS011;48300;52.902;6.534;2023-12-22T00:25:39;16.60;;;2.97;;
62052;SDS011;48300;52.902;6.534;2023-12-22T00:28:05;26.58;;;2.63;;
62052;SDS011;48300;52.902;6.534;2023-12-22T00:30:31;21.83;;;3.15;;
62052;SDS011;48300;52.902;6.534;2023-12-22T00:32:57;24.50;;;3.08;;
62052;SDS011;48300;52.902;6.534;2023-12-22T00:35:23;24.95;;;2.55;;
62052;SDS011;48300;52.902;6.534;2023-12-22T00:37:49;20.98;;;2.13;;
62052;SDS011;48300;52.902;6.534;2023-12-22T00:40:15;20.20;;;2.78;;
62052;SDS011;48300;52.902;6.534;2023-12-22T00:42:41;12.57;;;1.52;;
62052;SDS011;48300;52.902;6.534;2023-12-22T00:45:07;15.68;;;2.20;;
62052;SDS011;48300;52.902;6.534;2023-12-22T00:47:33;13.25;;;2.42;;
62052;SDS011;48300;52.902;6.534;2023-12-22T00:50:00;24.95;;;2.55;;
62052;SDS011;48300;52.902;6.534;2023-12-22T00:52:27;16.42;;;1.95;;
62052;SDS011;48300;52.902;6.534;2023-12-22T00:54:53;12.60;;;1.70;;
62052;SDS011;48300;52.902;6.534;2023-12-22T00:57:19;17.65;;;2.65;;
62052;SDS011;48300;52.902;6.534;2023-12-22T00:59:45;15.73;;;2.97;;
62052;SDS011;48300;52.902;6.534;2023-12-22T01:02:15;18.48;;;1.77;;
62052;SDS011;48300;52.902;6.534;2023-12-22T01:04:41;21.92;;;2.53;;
62052;SDS011;48300;52.902;6.534;2023-12-22T01:07:07;19.02;;;2.50;;
62052;SDS011;48300;52.902;6.534;2023-12-22T01:09:33;21.60;;;2.47;;
62052;SDS011;48300;52.902;6.534;2023-12-22T01:12:00;20.40;;;2.75;;
62052;SDS011;48300;52.902;6.534;2023-12-22T01:14:29;28.52;;;4.75;;
62052;SDS011;48300;52.902;6.534;2023-12-22T01:16:55;18.45;;;2.28;;
62052;SDS011;48300;52.902;6.534;2023-12-22T01:19:21;23.88;;;2.15;;
62052;SDS011;48300;52.902;6.534;2023-12-22T01:21:47;16.42;;;2.88;;
62052;SDS011;48300;52.902;6.534;2023-12-22T01:24:14;17.35;;;2.22;;
62052;SDS011;48300;52.902;6.534;2023-12-22T01:26:40;21.77;;;3.00;;
62052;SDS011;48300;52.902;6.534;2023-12-22T01:29:06;20.77;;;2.20;;
62052;SDS011;48300;52.902;6.534;2023-12-22T01:31:32;15.05;;;1.95;;
62052;SDS011;48300;52.902;6.534;2023-12-22T01:33:58;16.40;;;2.55;;
62052;SDS011;48300;52.902;6.534;2023-12-22T01:36:24;15.30;;;1.70;;
62052;SDS011;48300;52.902;6.534;2023-12-22T01:38:50;15.52;;;1.45;;
62052;SDS011;48300;52.902;6.534;2023-12-22T01:41:16;17.95;;;2.25;;
62052;SDS011;48300;52.902;6.534;2023-12-22T01:43:42;17.33;;;2.22;;
62052;SDS011;48300;52.902;6.534;2023-12-22T01:46:08;18.92;;;1.75;;
62052;SDS011;48300;52.902;6.534;2023-12-22T01:48:35;14.13;;;1.40;;
62052;SDS011;48300;52.902;6.534;2023-12-22T01:51:01;23.17;;;2.10;;
62052;SDS011;48300;52.902;6.534;2023-12-22T01:53:28;16.33;;;2.15;;
62052;SDS011;48300;52.902;6.534;2023-12-22T01:55:55;18.92;;;2.17;;
62052;SDS011;48300;52.902;6.534;2023-12-22T01:58:22;18.02;;;3.03;;
62052;SDS011;48300;52.902;6.534;2023-12-22T02:00:48;16.08;;;1.80;;
62052;SDS011;48300;52.902;6.534;2023-12-22T02:03:15;15.98;;;1.85;;
62052;SDS011;48300;52.902;6.534;2023-12-22T02:05:42;17.30;;;2.15;;
62052;SDS011;48300;52.902;6.534;2023-12-22T02:08:08;17.50;;;1.67;;
62052;SDS011;48300;52.902;6.534;2023-12-22T02:10:34;18.02;;;2.35;;
62052;SDS011;48300;52.902;6.534;2023-12-22T02:13:00;23.63;;;2.60;;
62052;SDS011;48300;52.902;6.534;2023-12-22T02:15:26;22.52;;;2.03;;
62052;SDS011;48300;52.902;6.534;2023-12-22T02:18:02;20.35;;;3.63;;
62052;SDS011;48300;52.902;6.534;2023-12-22T02:20:28;21.27;;;3.22;;
62052;SDS011;48300;52.902;6.534;2023-12-22T02:22:55;22.77;;;2.88;;
62052;SDS011;48300;52.902;6.534;2023-12-22T02:25:21;21.33;;;2.25;;
62052;SDS011;48300;52.902;6.534;2023-12-22T02:27:50;21.42;;;3.88;;
62052;SDS011;48300;52.902;6.534;2023-12-22T02:30:32;22.40;;;2.58;;
62052;SDS011;48300;52.902;6.534;2023-12-22T02:33:03;17.17;;;1.88;;
62052;SDS011;48300;52.902;6.534;2023-12-22T02:35:30;31.58;;;4.75;;
62052;SDS011;48300;52.902;6.534;2023-12-22T02:37:57;28.50;;;2.77;;
62052;SDS011;48300;52.902;6.534;2023-12-22T02:40:24;27.05;;;2.53;;
62052;SDS011;48300;52.902;6.534;2023-12-22T02:42:51;22.38;;;2.45;;
62052;SDS011;48300;52.902;6.534;2023-12-22T02:45:18;22.45;;;1.85;;
62052;SDS011;48300;52.902;6.534;2023-12-22T02:47:44;18.65;;;2.00;;
62052;SDS011;48300;52.902;6.534;2023-12-22T02:50:11;16.42;;;1.73;;
62052;SDS011;48300;52.902;6.534;2023-12-22T02:52:37;17.88;;;1.70;;
62052;SDS011;48300;52.902;6.534;2023-12-22T02:55:03;10.65;;;1.38;;
62052;SDS011;48300;52.902;6.534;2023-12-22T02:57:29;11.07;;;1.30;;
62052;SDS011;48300;52.902;6.534;2023-12-22T02:59:56;10.75;;;0.88;;
62052;SDS011;48300;52.902;6.534;2023-12-22T03:02:22;11.25;;;1.45;;
62052;SDS011;48300;52.902;6.534;2023-12-22T03:04:48;11.38;;;3.20;;
62052;SDS011;48300;52.902;6.534;2023-12-22T03:07:14;7.97;;;1.10;;
62052;SDS011;48300;52.902;6.534;2023-12-22T03:09:41;14.02;;;1.60;;
62052;SDS011;48300;52.902;6.534;2023-12-22T03:12:07;11.13;;;1.40;;
62052;SDS011;48300;52.902;6.534;2023-12-22T03:14:33;14.20;;;1.70;;
62052;SDS011;48300;52.902;6.534;2023-12-22T03:17:03;14.63;;;1.50;;
62052;SDS011;48300;52.902;6.534;2023-12-22T03:19:29;8.95;;;1.08;;
62052;SDS011;48300;52.902;6.534;2023-12-22T03:21:55;13.75;;;1.65;;
62052;SDS011;48300;52.902;6.534;2023-12-22T03:24:22;6.97;;;0.90;;
62052;SDS011;48300;52.902;6.534;2023-12-22T03:26:51;8.27;;;1.80;;
62052;SDS011;48300;52.902;6.534;2023-12-22T03:29:18;10.70;;;1.38;;
62052;SDS011;48300;52.902;6.534;2023-12-22T03:31:44;9.75;;;1.15;;
62052;SDS011;48300;52.902;6.534;2023-12-22T03:34:10;11.85;;;1.42;;
62052;SDS011;48300;52.902;6.534;2023-12-22T03:36:36;8.70;;;1.48;;
62052;SDS011;48300;52.902;6.534;2023-12-22T03:39:02;6.10;;;0.90;;
62052;SDS011;48300;52.902;6.534;2023-12-22T03:41:28;12.25;;;2.38;;
62052;SDS011;48300;52.902;6.534;2023-12-22T03:43:55;9.88;;;1.65;;
62052;SDS011;48300;52.902;6.534;2023-12-22T03:46:21;12.68;;;0.88;;
62052;SDS011;48300;52.902;6.534;2023-12-22T03:48:47;10.93;;;1.70;;
62052;SDS011;48300;52.902;6.534;2023-12-22T03:51:13;12.10;;;1.80;;
62052;SDS011;48300;52.902;6.534;2023-12-22T03:53:40;9.45;;;1.02;;
62052;SDS011;48300;52.902;6.534;2023-12-22T03:56:07;14.77;;;1.85;;
62052;SDS011;48300;52.902;6.534;2023-12-22T03:58:34;14.18;;;1.48;;
62052;SDS011;48300;52.902;6.534;2023-12-22T04:01:00;12.85;;;1.08;;
62052;SDS011;48300;52.902;6.534;2023-12-22T04:03:26;14.15;;;1.63;;
62052;SDS011;48300;52.902;6.534;2023-12-22T04:05:52;15.77;;;1.50;;
62052;SDS011;48300;52.902;6.534;2023-12-22T04:08:18;17.13;;;1.60;;
62052;SDS011;48300;52.902;6.534;2023-12-22T04:10:45;16.70;;;1.60;;
62052;SDS011;48300;52.902;6.534;2023-12-22T04:13:11;21.85;;;1.98;;
62052;SDS011;48300;52.902;6.534;2023-12-22T04:15:37;21.05;;;1.95;;
62052;SDS011;48300;52.902;6.534;2023-12-22T04:18:03;12.95;;;2.35;;
62052;SDS011;48300;52.902;6.534;2023-12-22T04:20:29;23.45;;;1.90;;
62052;SDS011;48300;52.902;6.534;2023-12-22T04:22:56;21.05;;;1.70;;
62052;SDS011;48300;52.902;6.534;2023-12-22T04:25:22;17.40;;;2.10;;
62052;SDS011;48300;52.902;6.534;2023-12-22T04:27:49;18.88;;;1.90;;
62052;SDS011;48300;52.902;6.534;2023-12-22T04:30:16;15.10;;;1.83;;
62052;SDS011;48300;52.902;6.534;2023-12-22T04:32:42;19.70;;;1.92;;
62052;SDS011;48300;52.902;6.534;2023-12-22T04:35:08;14.13;;;2.17;;
62052;SDS011;48300;52.902;6.534;2023-12-22T04:37:34;23.92;;;2.15;;
62052;SDS011;48300;52.902;6.534;2023-12-22T04:40:00;21.05;;;2.42;;
62052;SDS011;48300;52.902;6.534;2023-12-22T04:42:26;20.10;;;1.88;;
62052;SDS011;48300;52.902;6.534;2023-12-22T04:44:53;22.60;;;2.70;;
62052;SDS011;48300;52.902;6.534;2023-12-22T04:47:19;16.98;;;2.05;;
62052;SDS011;48300;52.902;6.534;2023-12-22T04:49:45;16.58;;;1.98;;
62052;SDS011;48300;52.902;6.534;2023-12-22T04:52:11;15.45;;;1.88;;
62052;SDS011;48300;52.902;6.534;2023-12-22T04:54:37;22.30;;;4.03;;
62052;SDS011;48300;52.902;6.534;2023-12-22T04:57:04;17.83;;;2.35;;
62052;SDS011;48300;52.902;6.534;2023-12-22T04:59:30;16.10;;;1.95;;
62052;SDS011;48300;52.902;6.534;2023-12-22T05:01:56;14.75;;;2.03;;
62052;SDS011;48300;52.902;6.534;2023-12-22T05:04:22;21.02;;;2.55;;
62052;SDS011;48300;52.902;6.534;2023-12-22T05:06:48;23.70;;;2.75;;
62052;SDS011;48300;52.902;6.534;2023-12-22T05:09:15;22.45;;;3.20;;
62052;SDS011;48300;52.902;6.534;2023-12-22T05:11:41;13.63;;;2.10;;
62052;SDS011;48300;52.902;6.534;2023-12-22T05:14:07;25.60;;;2.53;;
62052;SDS011;48300;52.902;6.534;2023-12-22T05:16:33;15.40;;;2.15;;
62052;SDS011;48300;52.902;6.534;2023-12-22T05:18:59;13.93;;;2.60;;
62052;SDS011;48300;52.902;6.534;2023-12-22T05:21:25;11.70;;;1.60;;
62052;SDS011;48300;52.902;6.534;2023-12-22T05:23:53;16.85;;;2.47;;
62052;SDS011;48300;52.902;6.534;2023-12-22T05:26:19;14.10;;;1.88;;
62052;SDS011;48300;52.902;6.534;2023-12-22T05:28:45;15.45;;;2.67;;
62052;SDS011;48300;52.902;6.534;2023-12-22T05:31:11;12.80;;;1.77;;
62052;SDS011;48300;52.902;6.534;2023-12-22T05:33:37;17.20;;;2.15;;
62052;SDS011;48300;52.902;6.534;2023-12-22T05:36:03;14.50;;;1.75;;
62052;SDS011;48300;52.902;6.534;2023-12-22T05:38:29;19.05;;;2.50;;
62052;SDS011;48300;52.902;6.534;2023-12-22T05:40:56;13.57;;;1.48;;
62052;SDS011;48300;52.902;6.534;2023-12-22T05:43:22;15.85;;;1.73;;
62052;SDS011;48300;52.902;6.534;2023-12-22T05:45:48;14.73;;;1.98;;
62052;SDS011;48300;52.902;6.534;2023-12-22T05:48:14;17.48;;;2.22;;
62052;SDS011;48300;52.902;6.534;2023-12-22T05:50:40;14.45;;;2.50;;
62052;SDS011;48300;52.902;6.534;2023-12-22T05:53:06;14.15;;;2.10;;
62052;SDS011;48300;52.902;6.534;2023-12-22T05:55:32;18.80;;;1.80;;
62052;SDS011;48300;52.902;6.534;2023-12-22T05:57:58;18.85;;;1.98;;
62052;SDS011;48300;52.902;6.534;2023-12-22T06:00:23;13.77;;;1.52;;
62052;SDS011;48300;52.902;6.534;2023-12-22T06:02:51;12.13;;;2.50;;
62052;SDS011;48300;52.902;6.534;2023-12-22T06:05:17;16.63;;;2.03;;
62052;SDS011;48300;52.902;6.534;2023-12-22T06:07:43;21.92;;;2.38;;
62052;SDS011;48300;52.902;6.534;2023-12-22T06:10:09;18.70;;;2.22;;
62052;SDS011;48300;52.902;6.534;2023-12-22T06:12:35;21.30;;;2.20;;
62052;SDS011;48300;52.902;6.534;2023-12-22T06:15:02;17.85;;;2.50;;
62052;SDS011;48300;52.902;6.534;2023-12-22T06:17:28;18.88;;;1.67;;
62052;SDS011;48300;52.902;6.534;2023-12-22T06:19:54;14.35;;;1.67;;
62052;SDS011;48300;52.902;6.534;2023-12-22T06:22:20;12.18;;;1.70;;
62052;SDS011;48300;52.902;6.534;2023-12-22T06:24:46;19.88;;;1.85;;
62052;SDS011;48300;52.902;6.534;2023-12-22T06:27:12;20.25;;;1.90;;
62052;SDS011;48300;52.902;6.534;2023-12-22T06:29:38;17.27;;;2.10;;
62052;SDS011;48300;52.902;6.534;2023-12-22T06:32:05;19.13;;;2.25;;
62052;SDS011;48300;52.902;6.534;2023-12-22T06:34:31;16.50;;;1.67;;
62052;SDS011;48300;52.902;6.534;2023-12-22T06:36:57;11.48;;;1.85;;
62052;SDS011;48300;52.902;6.534;2023-12-22T06:39:23;20.27;;;2.13;;
62052;SDS011;48300;52.902;6.534;2023-12-22T06:41:49;10.95;;;2.22;;
62052;SDS011;48300;52.902;6.534;2023-12-22T06:44:16;17.63;;;1.90;;
62052;SDS011;48300;52.902;6.534;2023-12-22T06:46:42;20.92;;;2.60;;
62052;SDS011;48300;52.902;6.534;2023-12-22T06:49:08;24.98;;;3.28;;
62052;SDS011;48300;52.902;6.534;2023-12-22T06:51:34;18.42;;;2.78;;
62052;SDS011;48300;52.902;6.534;2023-12-22T06:54:00;19.17;;;2.03;;
62052;SDS011;48300;52.902;6.534;2023-12-22T06:56:27;22.00;;;1.98;;
62052;SDS011;48300;52.902;6.534;2023-12-22T06:58:54;15.80;;;1.70;;
62052;SDS011;48300;52.902;6.534;2023-12-22T07:01:22;20.23;;;2.00;;
62052;SDS011;48300;52.902;6.534;2023-12-22T07:03:49;18.92;;;2.55;;
62052;SDS011;48300;52.902;6.534;2023-12-22T07:06:15;13.48;;;2.10;;
62052;SDS011;48300;52.902;6.534;2023-12-22T07:08:42;14.88;;;1.10;;
62052;SDS011;48300;52.902;6.534;2023-12-22T07:11:08;14.75;;;2.22;;
62052;SDS011;48300;52.902;6.534;2023-12-22T07:13:34;15.05;;;2.25;;
62052;SDS011;48300;52.902;6.534;2023-12-22T07:16:00;12.70;;;1.30;;
62052;SDS011;48300;52.902;6.534;2023-12-22T07:18:27;14.02;;;1.60;;
62052;SDS011;48300;52.902;6.534;2023-12-22T07:20:57;16.33;;;2.35;;
62052;SDS011;48300;52.902;6.534;2023-12-22T07:23:23;24.00;;;2.13;;
62052;SDS011;48300;52.902;6.534;2023-12-22T07:25:49;21.17;;;2.30;;
62052;SDS011;48300;52.902;6.534;2023-12-22T07:28:15;13.60;;;1.42;;
62052;SDS011;48300;52.902;6.534;2023-12-22T07:30:41;14.10;;;1.88;;
62052;SDS011;48300;52.902;6.534;2023-12-22T07:33:07;6.60;;;1.30;;
62052;SDS011;48300;52.902;6.534;2023-12-22T07:35:33;15.93;;;2.42;;
62052;SDS011;48300;52.902;6.534;2023-12-22T07:38:00;20.30;;;2.15;;
62052;SDS011;48300;52.902;6.534;2023-12-22T07:40:27;10.65;;;1.80;;
62052;SDS011;48300;52.902;6.534;2023-12-22T07:42:57;21.05;;;1.77;;
62052;SDS011;48300;52.902;6.534;2023-12-22T07:45:23;10.63;;;1.38;;
62052;SDS011;48300;52.902;6.534;2023-12-22T07:47:49;16.35;;;2.85;;
62052;SDS011;48300;52.902;6.534;2023-12-22T07:50:15;11.60;;;1.73;;
62052;SDS011;48300;52.902;6.534;2023-12-22T07:52:41;13.45;;;1.80;;
62052;SDS011;48300;52.902;6.534;2023-12-22T07:55:08;15.48;;;1.83;;
62052;SDS011;48300;52.902;6.534;2023-12-22T07:57:35;23.38;;;2.05;;
62052;SDS011;48300;52.902;6.534;2023-12-22T08:00:02;11.93;;;2.55;;
62052;SDS011;48300;52.902;6.534;2023-12-22T08:02:28;12.13;;;1.55;;
62052;SDS011;48300;52.902;6.534;2023-12-22T08:04:54;15.85;;;1.80;;
62052;SDS011;48300;52.902;6.534;2023-12-22T08:07:20;17.55;;;2.00;;
62052;SDS011;48300;52.902;6.534;2023-12-22T08:09:46;13.48;;;2.17;;
62052;SDS011;48300;52.902;6.534;2023-12-22T08:12:12;18.80;;;2.80;;
62052;SDS011;48300;52.902;6.534;2023-12-22T08:14:38;19.48;;;2.10;;
62052;SDS011;48300;52.902;6.534;2023-12-22T08:17:06;17.08;;;1.92;;
62052;SDS011;48300;52.902;6.534;2023-12-22T08:19:32;18.33;;;2.03;;
62052;SDS011;48300;52.902;6.534;2023-12-22T08:21:58;16.30;;;1.95;;
62052;SDS011;48300;52.902;6.534;2023-12-22T08:24:24;15.50;;;2.35;;
62052;SDS011;48300;52.902;6.534;2023-12-22T08:26:50;12.82;;;2.10;;
62052;SDS011;48300;52.902;6.534;2023-12-22T08:29:16;9.68;;;1.40;;
62052;SDS011;48300;52.902;6.534;2023-12-22T08:31:43;14.98;;;1.73;;
62052;SDS011;48300;52.902;6.534;2023-12-22T08:34:09;11.95;;;2.03;;
62052;SDS011;48300;52.902;6.534;2023-12-22T08:36:35;10.65;;;2.10;;
62052;SDS011;48300;52.902;6.534;2023-12-22T08:39:01;9.60;;;1.20;;
62052;SDS011;48300;52.902;6.534;2023-12-22T08:41:30;8.98;;;0.80;;
62052;SDS011;48300;52.902;6.534;2023-12-22T08:44:01;10.95;;;0.90;;
62052;SDS011;48300;52.902;6.534;2023-12-22T08:46:27;7.97;;;1.00;;
62052;SDS011;48300;52.902;6.534;2023-12-22T08:48:52;6.22;;;0.70;;
62052;SDS011;48300;52.902;6.534;2023-12-22T08:51:18;10.00;;;0.73;;
62052;SDS011;48300;52.902;6.534;2023-12-22T08:53:44;5.80;;;0.70;;
62052;SDS011;48300;52.902;6.534;2023-12-22T08:56:10;7.40;;;0.45;;
62052;SDS011;48300;52.902;6.534;2023-12-22T08:58:36;7.70;;;0.70;;
62052;SDS011;48300;52.902;6.534;2023-12-22T09:01:02;7.20;;;1.27;;
62052;SDS011;48300;52.902;6.534;2023-12-22T09:03:29;5.78;;;0.50;;
62052;SDS011;48300;52.902;6.534;2023-12-22T09:05:56;5.57;;;0.68;;
62052;SDS011;48300;52.902;6.534;2023-12-22T09:08:22;3.00;;;0.30;;
62052;SDS011;48300;52.902;6.534;2023-12-22T09:10:48;3.95;;;0.73;;
62052;SDS011;48300;52.902;6.534;2023-12-22T09:13:14;5.13;;;0.40;;
62052;SDS011;48300;52.902;6.534;2023-12-22T09:15:40;4.78;;;0.40;;
62052;SDS011;48300;52.902;6.534;2023-12-22T09:18:06;2.75;;;0.50;;
62052;SDS011;48300;52.902;6.534;2023-12-22T09:20:32;3.58;;;0.47;;
62052;SDS011;48300;52.902;6.534;2023-12-22T09:22:58;6.88;;;0.68;;
62052;SDS011;48300;52.902;6.534;2023-12-22T09:25:24;4.97;;;0.60;;
62052;SDS011;48300;52.902;6.534;2023-12-22T09:27:51;3.38;;;0.32;;
62052;SDS011;48300;52.902;6.534;2023-12-22T09:30:17;1.75;;;0.30;;
62052;SDS011;48300;52.902;6.534;2023-12-22T09:32:43;3.95;;;0.43;;
62052;SDS011;48300;52.902;6.534;2023-12-22T09:35:09;4.53;;;0.43;;
62052;SDS011;48300;52.902;6.534;2023-12-22T09:37:35;7.70;;;1.33;;
62052;SDS011;48300;52.902;6.534;2023-12-22T09:40:01;8.27;;;1.13;;
62052;SDS011;48300;52.902;6.534;2023-12-22T09:42:27;7.80;;;0.80;;
62052;SDS011;48300;52.902;6.534;2023-12-22T09:44:53;7.88;;;0.70;;
62052;SDS011;48300;52.902;6.534;2023-12-22T09:47:22;5.47;;;0.45;;
62052;SDS011;48300;52.902;6.534;2023-12-22T09:49:49;9.25;;;0.80;;
62052;SDS011;48300;52.902;6.534;2023-12-22T09:52:15;7.28;;;0.88;;
62052;SDS011;48300;52.902;6.534;2023-12-22T09:54:41;6.25;;;0.65;;
62052;SDS011;48300;52.902;6.534;2023-12-22T09:57:08;5.63;;;0.88;;
62052;SDS011;48300;52.902;6.534;2023-12-22T09:59:35;4.70;;;0.50;;
62052;SDS011;48300;52.902;6.534;2023-12-22T10:02:01;11.70;;;1.05;;
62052;SDS011;48300;52.902;6.534;2023-12-22T10:04:27;5.93;;;0.85;;
62052;SDS011;48300;52.902;6.534;2023-12-22T10:06:54;6.75;;;0.73;;
62052;SDS011;48300;52.902;6.534;2023-12-22T10:09:25;5.90;;;0.70;;
62052;SDS011;48300;52.902;6.534;2023-12-22T10:11:52;13.40;;;2.55;;
62052;SDS011;48300;52.902;6.534;2023-12-22T10:14:21;7.30;;;0.77;;
62052;SDS011;48300;52.902;6.534;2023-12-22T10:16:48;9.52;;;1.80;;
62052;SDS011;48300;52.902;6.534;2023-12-22T10:19:15;13.65;;;2.10;;
62052;SDS011;48300;52.902;6.534;2023-12-22T10:21:41;12.93;;;1.27;;
62052;SDS011;48300;52.902;6.534;2023-12-22T10:24:07;9.05;;;1.30;;
62052;SDS011;48300;52.902;6.534;2023-12-22T10:26:33;9.70;;;1.40;;
62052;SDS011;48300;52.902;6.534;2023-12-22T10:28:59;8.20;;;1.48;;
62052;SDS011;48300;52.902;6.534;2023-12-22T10:31:26;13.05;;;0.93;;
62052;SDS011;48300;52.902;6.534;2023-12-22T10:33:53;14.95;;;1.75;;
62052;SDS011;48300;52.902;6.534;2023-12-22T10:36:19;14.50;;;1.38;;
62052;SDS011;48300;52.902;6.534;2023-12-22T10:38:45;12.80;;;1.88;;
62052;SDS011;48300;52.902;6.534;2023-12-22T10:41:11;12.13;;;2.72;;
62052;SDS011;48300;52.902;6.534;2023-12-22T10:43:40;9.98;;;1.73;;
62052;SDS011;48300;52.902;6.534;2023-12-22T10:46:06;12.25;;;1.40;;
62052;SDS011;48300;52.902;6.534;2023-12-22T10:48:33;12.23;;;1.70;;
62052;SDS011;48300;52.902;6.534;2023-12-22T10:51:00;11.90;;;1.23;;
62052;SDS011;48300;52.902;6.534;2023-12-22T10:53:26;9.13;;;1.08;;
62052;SDS011;48300;52.902;6.534;2023-12-22T10:55:52;9.43;;;2.03;;
62052;SDS011;48300;52.902;6.534;2023-12-22T10:58:19;16.15;;;1.52;;
62052;SDS011;48300;52.902;6.534;2023-12-22T11:00:45;11.90;;;1.73;;
62052;SDS011;48300;52.902;6.534;2023-12-22T11:03:12;16.65;;;1.73;;
62052;SDS011;48300;52.902;6.534;2023-12-22T11:05:44;5.00;;;1.00;;
62052;SDS011;48300;52.902;6.534;2023-12-22T11:08:10;8.02;;;1.20;;
62052;SDS011;48300;52.902;6.534;2023-12-22T11:10:37;8.30;;;1.25;;
62052;SDS011;48300;52.902;6.534;2023-12-22T11:13:05;15.32;;;1.63;;
62052;SDS011;48300;52.902;6.534;2023-12-22T11:15:31;6.50;;;0.70;;
62052;SDS011;48300;52.902;6.534;2023-12-22T11:17:58;12.45;;;1.88;;
62052;SDS011;48300;52.902;6.534;2023-12-22T11:20:24;5.05;;;0.93;;
62052;SDS011;48300;52.902;6.534;2023-12-22T11:22:51;10.05;;;0.80;;
62052;SDS011;48300;52.902;6.534;2023-12-22T11:25:17;6.72;;;1.00;;
62052;SDS011;48300;52.902;6.534;2023-12-22T11:27:44;5.65;;;0.70;;
62052;SDS011;48300;52.902;6.534;2023-12-22T11:30:10;5.50;;;0.55;;
62052;SDS011;48300;52.902;6.534;2023-12-22T11:32:37;10.57;;;0.90;;
62052;SDS011;48300;52.902;6.534;2023-12-22T11:35:05;6.47;;;0.65;;
62052;SDS011;48300;52.902;6.534;2023-12-22T11:37:32;3.10;;;0.47;;
62052;SDS011;48300;52.902;6.534;2023-12-22T11:40:02;4.82;;;0.68;;
62052;SDS011;48300;52.902;6.534;2023-12-22T11:42:29;7.35;;;0.93;;
62052;SDS011;48300;52.902;6.534;2023-12-22T11:44:57;8.77;;;0.95;;
62052;SDS011;48300;52.902;6.534;2023-12-22T11:47:23;7.65;;;1.05;;
62052;SDS011;48300;52.902;6.534;2023-12-22T11:49:50;7.72;;;0.73;;
62052;SDS011;48300;52.902;6.534;2023-12-22T11:52:17;9.10;;;0.70;;
62052;SDS011;48300;52.902;6.534;2023-12-22T11:54:44;7.45;;;0.80;;
62052;SDS011;48300;52.902;6.534;2023-12-22T12:00:07;6.85;;;0.73;;
62052;SDS011;48300;52.902;6.534;2023-12-22T12:02:34;8.57;;;0.47;;
62052;SDS011;48300;52.902;6.534;2023-12-22T12:05:01;9.57;;;2.00;;
62052;SDS011;48300;52.902;6.534;2023-12-22T12:10:09;10.82;;;0.90;;
62052;SDS011;48300;52.902;6.534;2023-12-22T12:12:35;12.27;;;1.83;;
62052;SDS011;48300;52.902;6.534;2023-12-22T12:15:06;7.47;;;0.80;;
62052;SDS011;48300;52.902;6.534;2023-12-22T12:17:33;14.85;;;0.80;;
62052;SDS011;48300;52.902;6.534;2023-12-22T12:19:59;6.60;;;1.00;;
62052;SDS011;48300;52.902;6.534;2023-12-22T12:22:25;7.63;;;0.88;;
62052;SDS011;48300;52.902;6.534;2023-12-22T12:24:51;11.98;;;0.88;;
62052;SDS011;48300;52.902;6.534;2023-12-22T12:27:18;7.47;;;1.15;;
62052;SDS011;48300;52.902;6.534;2023-12-22T12:29:44;12.20;;;0.75;;
62052;SDS011;48300;52.902;6.534;2023-12-22T12:32:10;6.50;;;0.98;;
62052;SDS011;48300;52.902;6.534;2023-12-22T12:34:39;6.88;;;1.00;;
62052;SDS011;48300;52.902;6.534;2023-12-22T12:37:06;8.00;;;1.13;;
62052;SDS011;48300;52.902;6.534;2023-12-22T12:39:32;8.45;;;1.00;;
62052;SDS011;48300;52.902;6.534;2023-12-22T12:42:00;10.13;;;1.58;;
62052;SDS011;48300;52.902;6.534;2023-12-22T12:44:29;6.15;;;0.68;;
62052;SDS011;48300;52.902;6.534;2023-12-22T12:46:59;8.88;;;1.25;;
62052;SDS011;48300;52.902;6.534;2023-12-22T12:49:25;9.50;;;1.30;;
62052;SDS011;48300;52.902;6.534;2023-12-22T12:51:54;4.90;;;0.65;;
62052;SDS011;48300;52.902;6.534;2023-12-22T12:54:20;6.22;;;0.85;;
62052;SDS011;48300;52.902;6.534;2023-12-22T12:56:46;9.50;;;1.20;;
62052;SDS011;48300;52.902;6.534;2023-12-22T12:59:14;7.88;;;0.82;;
62052;SDS011;48300;52.902;6.534;2023-12-22T13:01:47;10.20;;;1.05;;
62052;SDS011;48300;52.902;6.534;2023-12-22T13:04:13;6.75;;;1.17;;
62052;SDS011;48300;52.902;6.534;2023-12-22T13:06:43;14.27;;;0.90;;
62052;SDS011;48300;52.902;6.534;2023-12-22T13:09:09;7.57;;;1.10;;
62052;SDS011;48300;52.902;6.534;2023-12-22T13:11:35;14.50;;;0.98;;
62052;SDS011;48300;52.902;6.534;2023-12-22T13:14:01;7.63;;;1.00;;
62052;SDS011;48300;52.902;6.534;2023-12-22T13:16:27;16.15;;;1.20;;
62052;SDS011;48300;52.902;6.534;2023-12-22T13:18:57;9.95;;;1.08;;
62052;SDS011;48300;52.902;6.534;2023-12-22T13:21:23;11.02;;;1.42;;
62052;SDS011;48300;52.902;6.534;2023-12-22T13:24:08;9.50;;;0.95;;
62052;SDS011;48300;52.902;6.534;2023-12-22T13:26:35;7.88;;;0.70;;
62052;SDS011;48300;52.902;6.534;2023-12-22T13:29:01;6.68;;;0.57;;
62052;SDS011;48300;52.902;6.534;2023-12-22T13:31:27;8.50;;;1.05;;
62052;SDS011;48300;52.902;6.534;2023-12-22T13:33:55;7.75;;;0.70;;
62052;SDS011;48300;52.902;6.534;2023-12-22T13:36:21;10.18;;;0.70;;
62052;SDS011;48300;52.902;6.534;2023-12-22T13:38:48;10.45;;;1.17;;
62052;SDS011;48300;52.902;6.534;2023-12-22T13:41:14;8.02;;;0.60;;
62052;SDS011;48300;52.902;6.534;2023-12-22T13:43:40;7.57;;;1.58;;
62052;SDS011;48300;52.902;6.534;2023-12-22T13:46:07;6.47;;;1.20;;
62052;SDS011;48300;52.902;6.534;2023-12-22T13:48:33;8.23;;;0.82;;
62052;SDS011;48300;52.902;6.534;2023-12-22T13:51:00;7.57;;;0.93;;
62052;SDS011;48300;52.902;6.534;2023-12-22T13:53:26;8.05;;;1.05;;
62052;SDS011;48300;52.902;6.534;2023-12-22T13:55:56;9.00;;;0.68;;
62052;SDS011;48300;52.902;6.534;2023-12-22T13:58:22;10.38;;;0.60;;
62052;SDS011;48300;52.902;6.534;2023-12-22T14:00:48;12.18;;;1.05;;
62052;SDS011;48300;52.902;6.534;2023-12-22T14:03:15;5.88;;;0.88;;
62052;SDS011;48300;52.902;6.534;2023-12-22T14:05:49;6.70;;;0.77;;
62052;SDS011;48300;52.902;6.534;2023-12-22T14:08:16;8.13;;;0.60;;
62052;SDS011;48300;52.902;6.534;2023-12-22T14:10:45;6.13;;;0.52;;
62052;SDS011;48300;52.902;6.534;2023-12-22T14:13:12;6.15;;;1.55;;
62052;SDS011;48300;52.902;6.534;2023-12-22T14:15:38;5.80;;;0.77;;
62052;SDS011;48300;52.902;6.534;2023-12-22T14:18:04;7.72;;;0.60;;
62052;SDS011;48300;52.902;6.534;2023-12-22T14:20:30;5.55;;;0.30;;
62052;SDS011;48300;52.902;6.534;2023-12-22T14:22:56;2.47;;;0.45;;
62052;SDS011;48300;52.902;6.534;2023-12-22T14:25:22;7.80;;;0.65;;
62052;SDS011;48300;52.902;6.534;2023-12-22T14:27:50;7.47;;;0.60;;
62052;SDS011;48300;52.902;6.534;2023-12-22T14:30:17;4.80;;;0.30;;
62052;SDS011;48300;52.902;6.534;2023-12-22T14:32:43;3.17;;;0.30;;
62052;SDS011;48300;52.902;6.534;2023-12-22T14:35:09;2.78;;;0.20;;
62052;SDS011;48300;52.902;6.534;2023-12-22T14:37:36;2.60;;;0.30;;
62052;SDS011;48300;52.902;6.534;2023-12-22T14:40:02;1.30;;;0.20;;